Time;durP1;ratioP1;P1;durP2;ratioP2;P2;SDS_P1;SDS_P2;PMS_P1;PMS_P2;Temp;Humidity;BMP_temperature;BMP_pressure;BME280_temperature;BME280_humidity;BME280_pressure;Samples;Min_cycle;Max_cycle;Signal;HPM_P1;HPM_P2
2023/07/05 00:01:49;;;;;;;12.65;7.30;;;;;;;24.76;67.14;100079.93;1701652;83;21716;-80
2023/07/05 00:04:55;;;;;;;11.45;6.78;;;;;;;25.01;66.04;100084.16;1703241;84;21890;-81
2023/07/05 00:08:00;;;;;;;9.13;6.80;;;;;;;24.63;67.25;100086.31;1703204;84;21336;-81
2023/07/05 00:11:12;;;;;;;9.90;7.53;;;;;;;24.44;68.07;100087.92;1702551;84;21344;-81
2023/07/05 00:14:17;;;;;;;10.28;6.80;;;;;;;24.57;67.49;100083.78;1703245;84;21320;-80
2023/07/05 00:17:22;;;;;;;14.68;7.12;;;;;;;24.58;67.42;100077.91;1703237;84;21337;-81
2023/07/05 00:20:28;;;;;;;13.90;7.87;;;;;;;24.76;66.85;100081.33;1702917;84;21347;-81
2023/07/05 00:23:34;;;;;;;14.40;7.28;;;;;;;24.59;67.09;100085.17;1709753;83;21956;-80
2023/07/05 00:26:40;;;;;;;13.20;7.08;;;;;;;24.87;66.51;100078.83;1713056;83;21350;-81
2023/07/05 00:29:47;;;;;;;14.10;7.22;;;;;;;25.20;65.40;100081.14;1713437;83;21323;-80
2023/07/05 00:32:53;;;;;;;21.87;7.15;;;;;;;24.93;65.94;100077.70;1713438;83;21319;-80
2023/07/05 00:36:01;;;;;;;10.35;6.80;;;;;;;25.07;65.80;100087.27;1713334;83;21340;-80
2023/07/05 00:39:07;;;;;;;19.20;7.65;;;;;;;25.06;65.84;100081.94;1713351;83;21339;-80
2023/07/05 00:42:13;;;;;;;13.15;7.25;;;;;;;25.09;65.83;100085.63;1712242;83;21351;-80
2023/07/05 00:45:23;;;;;;;16.35;7.42;;;;;;;25.53;64.25;100085.91;1713435;83;21319;-80
2023/07/05 00:48:51;;;;;;;9.68;7.33;;;;;;;25.58;63.97;100087.30;1713519;83;21391;-80
2023/07/05 00:52:05;;;;;;;15.32;7.30;;;;;;;25.57;64.07;100085.63;1712846;83;21315;-80
2023/07/05 00:55:10;;;;;;;11.00;7.90;;;;;;;25.23;65.32;100083.39;1713731;83;21359;-80
2023/07/05 00:58:17;;;;;;;13.45;8.03;;;;;;;25.21;65.48;100082.81;1712448;83;21362;-80
2023/07/05 01:01:18;;;;;;;17.05;7.80;;;;;;;25.26;65.46;100084.77;1713142;83;21352;-80
2023/07/05 01:04:11;;;;;;;19.62;7.60;;;;;;;25.19;65.75;100078.63;1713504;83;21315;-80
2023/07/05 01:07:17;;;;;;;13.62;7.75;;;;;;;24.91;66.73;100077.99;1713617;83;21875;-80
2023/07/05 01:10:30;;;;;;;17.92;7.92;;;;;;;25.06;66.38;100081.94;1712132;83;21343;-80
2023/07/05 01:13:46;;;;;;;18.30;7.37;;;;;;;25.06;66.39;100078.58;1712196;83;21347;-80
2023/07/05 01:17:00;;;;;;;14.10;7.20;;;;;;;25.12;66.21;100081.69;1713373;83;21347;-81
2023/07/05 01:20:30;;;;;;;10.30;7.87;;;;;;;25.04;66.64;100079.42;1713414;83;21311;-81
2023/07/05 01:23:53;;;;;;;10.48;7.67;;;;;;;24.88;67.28;100072.11;1712303;83;21347;-81
2023/07/05 01:27:23;;;;;;;19.37;8.25;;;;;;;24.74;67.87;100072.62;1713306;83;21312;-81
2023/07/05 01:31:12;;;;;;;10.15;7.72;;;;;;;24.84;67.84;100071.84;1690405;83;21339;-80
2023/07/05 01:34:34;;;;;;;13.40;7.37;;;;;;;24.87;67.80;100067.64;1713554;83;21338;-80
2023/07/05 01:37:49;;;;;;;14.73;8.13;;;;;;;24.95;67.76;100074.93;1713377;83;22606;-80
2023/07/05 01:41:03;;;;;;;10.55;7.75;;;;;;;24.94;67.80;100081.65;1713396;83;21360;-80
2023/07/05 01:44:09;;;;;;;14.20;8.25;;;;;;;25.09;67.52;100079.46;1713755;83;21339;-80
2023/07/05 01:47:32;;;;;;;18.25;8.25;;;;;;;25.59;65.83;100081.97;1713528;83;21323;-80
2023/07/05 01:50:46;;;;;;;12.60;8.23;;;;;;;25.51;65.89;100076.96;1713286;83;21330;-80
2023/07/05 01:54:17;;;;;;;20.35;8.60;;;;;;;25.42;66.30;100084.24;1713518;83;21315;-80
2023/07/05 01:57:35;;;;;;;13.50;8.90;;;;;;;25.52;65.99;100089.00;1713440;83;21966;-80
2023/07/05 02:00:40;;;;;;;10.98;7.92;;;;;;;25.41;66.11;100095.17;1713415;83;21316;-80
2023/07/05 02:03:49;;;;;;;11.00;7.92;;;;;;;25.29;66.30;100087.03;1712112;83;21346;-80
2023/07/05 02:06:55;;;;;;;13.50;8.00;;;;;;;25.30;66.87;100086.47;1713361;83;21319;-80
2023/07/05 02:13:02;;;;;;;11.43;7.75;;;;;;;25.50;67.17;100087.86;1712430;83;21426;-80
2023/07/05 02:16:08;;;;;;;18.42;7.62;;;;;;;25.69;66.96;100095.16;1713429;83;21304;-80
2023/07/05 02:19:14;;;;;;;14.87;8.05;;;;;;;25.96;66.46;100099.05;1713377;83;21303;-82
2023/07/05 02:22:23;;;;;;;14.03;7.90;;;;;;;26.04;65.95;100091.47;1712906;83;21953;-82
2023/07/05 02:25:29;;;;;;;10.70;7.00;;;;;;;26.16;65.55;100087.80;1706612;83;22245;-82
2023/07/05 02:28:35;;;;;;;15.80;7.03;;;;;;;26.36;64.97;100086.05;1702725;84;21367;-80
2023/07/05 02:31:42;;;;;;;15.03;6.67;;;;;;;26.62;64.18;100087.63;1703146;84;21328;-81
2023/07/05 02:34:48;;;;;;;11.97;6.85;;;;;;;26.82;63.74;100081.63;1681648;84;21317;-81
2023/07/05 02:37:56;;;;;;;10.75;6.87;;;;;;;27.28;62.41;100090.62;1703203;84;21328;-81
2023/07/05 02:41:02;;;;;;;9.33;6.12;;;;;;;27.46;61.58;100089.08;1703135;84;21387;-81
2023/07/05 02:44:09;;;;;;;10.80;6.45;;;;;;;27.94;59.98;100087.23;1701790;84;21335;-81
2023/07/05 02:47:18;;;;;;;10.60;5.70;;;;;;;28.13;59.18;100087.31;1701823;84;21930;-81
2023/07/05 02:50:23;;;;;;;9.33;6.15;;;;;;;28.47;57.78;100091.46;1703118;84;21324;-81
2023/07/05 02:53:29;;;;;;;12.37;5.90;;;;;;;28.86;56.12;100090.38;1702266;84;21323;-80
2023/07/05 02:56:36;;;;;;;9.33;6.08;;;;;;;29.09;55.18;100088.66;1703155;84;21328;-81
2023/07/05 02:59:42;;;;;;;11.40;5.83;;;;;;;29.56;53.77;100088.22;1702401;84;21688;-81
2023/07/05 03:02:49;;;;;;;13.10;6.22;;;;;;;29.86;52.56;100088.80;1702521;84;21340;-81
2023/07/05 03:06:04;;;;;;;11.35;5.03;;;;;;;30.21;51.33;100092.98;1703166;84;21316;-81
2023/07/05 03:09:10;;;;;;;9.10;5.35;;;;;;;30.37;50.49;100094.91;1703197;84;21922;-81
2023/07/05 03:12:16;;;;;;;8.63;5.25;;;;;;;30.75;49.36;100085.64;1703118;84;21352;-80
2023/07/05 03:15:22;;;;;;;6.20;4.80;;;;;;;30.56;49.55;100088.56;1702006;84;21957;-80
2023/07/05 03:18:29;;;;;;;10.65;5.55;;;;;;;30.67;49.11;100087.18;1703067;84;21358;-79
2023/07/05 03:21:35;;;;;;;10.00;5.60;;;;;;;30.79;48.50;100093.17;1703338;84;21304;-80
2023/07/05 03:24:41;;;;;;;12.75;5.85;;;;;;;30.70;48.52;100089.39;1702204;84;21332;-80
2023/07/05 03:27:47;;;;;;;8.80;6.15;;;;;;;30.85;48.22;100084.58;1703465;84;21324;-80
2023/07/05 03:31:01;;;;;;;6.25;5.00;;;;;;;30.85;48.22;100084.58;1702039;84;21353;-80
2023/07/05 03:34:07;;;;;;;8.40;5.28;;;;;;;30.99;47.77;100084.80;1702447;84;21323;-80
2023/07/05 03:37:13;;;;;;;11.33;6.03;;;;;;;31.07;47.67;100084.63;1702008;84;21878;-80
2023/07/05 03:40:19;;;;;;;9.08;6.25;;;;;;;31.13;47.64;100083.34;1703278;84;21320;-80
2023/07/05 03:43:26;;;;;;;11.53;6.70;;;;;;;31.23;47.10;100083.09;1701878;84;21918;-80
2023/07/05 03:46:30;;;;;;;10.53;6.10;;;;;;;31.35;46.83;100081.16;1703133;84;21324;-80
2023/07/05 03:49:36;;;;;;;11.30;6.15;;;;;;;31.25;46.88;100079.97;1704006;84;21324;-79
2023/07/05 03:52:35;;;;;;;11.60;6.58;;;;;;;31.68;45.84;100088.80;1703226;84;21871;-81
2023/07/05 03:55:42;;;;;;;13.43;6.55;;;;;;;31.72;45.37;100089.83;1703280;84;21308;-80
2023/07/05 03:58:49;;;;;;;14.83;7.00;;;;;;;31.81;45.22;100079.98;1703316;84;21316;-81
2023/07/05 04:01:55;;;;;;;13.93;8.08;;;;;;;31.81;45.22;100079.98;1703208;84;21347;-80
2023/07/05 04:05:02;;;;;;;12.65;6.50;;;;;;;32.07;43.69;100085.80;1702140;84;21356;-80
2023/07/05 04:08:07;;;;;;;12.50;6.78;;;;;;;31.96;43.76;100092.91;1703498;84;21316;-80
2023/07/05 04:11:14;;;;;;;25.40;7.60;;;;;;;31.81;44.31;100091.30;1703493;84;21634;-80
2023/07/05 04:14:20;;;;;;;9.43;5.05;;;;;;;31.85;44.11;100088.08;1702782;84;21332;-80
2023/07/05 04:17:25;;;;;;;9.28;5.28;;;;;;;31.68;43.89;100090.21;1703273;84;21332;-80
2023/07/05 04:20:31;;;;;;;10.82;6.08;;;;;;;31.61;44.25;100084.74;1703259;84;21894;-81
2023/07/05 04:23:36;;;;;;;8.25;5.08;;;;;;;31.58;44.52;100089.06;1703257;84;21326;-80
2023/07/05 04:26:43;;;;;;;8.08;5.22;;;;;;;31.58;44.52;100089.06;1705925;83;21954;-80
2023/07/05 04:29:49;;;;;;;8.70;5.00;;;;;;;31.76;44.44;100088.58;1713362;83;21327;-80
2023/07/05 04:32:56;;;;;;;8.78;5.97;;;;;;;31.79;44.33;100090.77;1713455;83;21957;-80
2023/07/05 04:36:07;;;;;;;12.10;5.37;;;;;;;32.18;44.27;100091.41;1713355;83;21902;-80
2023/07/05 04:39:14;;;;;;;12.33;6.28;;;;;;;32.24;44.09;100080.23;1711447;83;21324;-80
2023/07/05 04:42:20;;;;;;;20.75;6.05;;;;;;;32.41;43.15;100095.63;1713497;83;21915;-80
2023/07/05 04:45:26;;;;;;;10.40;5.50;;;;;;;32.56;42.98;100094.61;1712283;83;21339;-80
2023/07/05 04:48:33;;;;;;;8.73;5.40;;;;;;;32.55;43.29;100090.09;1713338;83;21319;-80
2023/07/05 04:51:39;;;;;;;9.43;5.67;;;;;;;32.78;43.44;100085.73;1713484;83;21364;-80
2023/07/05 04:54:45;;;;;;;16.27;5.67;;;;;;;32.75;43.51;100089.25;1712926;83;21369;-81
2023/07/05 04:57:52;;;;;;;15.08;5.65;;;;;;;32.74;43.66;100094.05;1713273;82;21866;-80
2023/07/05 05:01:02;;;;;;;7.25;5.60;;;;;;;32.94;43.74;100091.80;1712738;84;21383;-80
2023/07/05 05:04:08;;;;;;;;;;;;;;;33.09;43.75;100097.56;1704144;82;21291;-81
2023/07/05 05:07:14;;;;;;;10.08;4.95;;;;;;;32.92;43.27;100092.12;1731189;82;20698;-80
2023/07/05 05:10:33;;;;;;;8.35;5.22;;;;;;;32.69;44.16;100098.45;1724275;82;21344;-81
2023/07/05 05:13:42;;;;;;;8.28;5.20;;;;;;;32.72;44.18;100098.39;1726909;82;21300;-80
2023/07/05 05:16:48;;;;;;;8.28;5.17;;;;;;;32.91;43.55;100102.38;1723112;82;21212;-80
2023/07/05 05:19:54;;;;;;;7.83;5.37;;;;;;;32.89;43.42;100098.98;1739543;82;21315;-81
2023/07/05 05:23:01;;;;;;;8.15;5.05;;;;;;;32.95;43.00;100105.63;1726383;83;21335;-80
2023/07/05 05:26:08;;;;;;;10.80;5.30;;;;;;;33.14;41.95;100099.65;1726210;82;21324;-80
2023/07/05 05:29:14;;;;;;;11.03;5.35;;;;;;;33.20;41.93;100105.39;1749084;81;21365;-80
2023/07/05 05:32:20;;;;;;;12.35;4.85;;;;;;;33.32;41.54;100109.83;1744205;82;21311;-81
2023/07/05 05:35:27;;;;;;;7.90;5.30;;;;;;;33.56;40.92;100103.67;1729054;82;21327;-81
2023/07/05 05:38:33;;;;;;;14.40;4.92;;;;;;;33.60;40.92;100107.27;1729322;82;21290;-81
2023/07/05 05:41:39;;;;;;;8.88;4.40;;;;;;;33.72;41.36;100103.14;1738591;82;21371;-82
2023/07/05 05:44:45;;;;;;;7.20;4.80;;;;;;;33.68;40.94;100108.64;1727615;82;22570;-82
2023/07/05 05:47:52;;;;;;;15.15;4.85;;;;;;;33.98;40.65;100104.55;1712091;83;21350;-81
2023/07/05 05:51:02;;;;;;;12.20;4.70;;;;;;;34.10;41.17;100110.33;1711947;83;21225;-81
2023/07/05 05:54:07;;;;;;;13.58;3.98;;;;;;;33.67;41.90;100102.73;1713075;82;21299;-81
2023/07/05 05:57:13;;;;;;;6.42;3.90;;;;;;;34.25;40.70;100097.58;1769239;81;21882;-81
2023/07/05 06:00:21;;;;;;;8.63;4.05;;;;;;;34.13;40.20;100095.47;1767700;81;21311;-81
2023/07/05 06:03:26;;;;;;;11.53;4.35;;;;;;;34.04;40.06;100096.92;1767718;81;21311;-81
2023/07/05 06:06:32;;;;;;;8.63;4.10;;;;;;;34.32;39.03;100102.98;1768247;81;21347;-81
2023/07/05 06:09:48;;;;;;;10.35;4.03;;;;;;;34.06;39.41;100093.73;1769394;81;21291;-80
2023/07/05 06:12:54;;;;;;;16.57;3.55;;;;;;;34.20;39.46;100098.60;1768056;81;21201;-80
2023/07/05 06:16:05;;;;;;;5.40;4.00;;;;;;;33.98;38.07;100101.70;1768811;81;21850;-81
2023/07/05 06:19:12;;;;;;;9.85;3.98;;;;;;;34.08;38.24;100097.08;1781684;79;21283;-81
2023/07/05 06:22:17;;;;;;;11.88;3.98;;;;;;;34.11;38.41;100092.13;1802305;79;21300;-80
2023/07/05 06:25:23;;;;;;;11.10;5.10;;;;;;;34.13;38.36;100096.89;1802385;79;21925;-81
2023/07/05 06:28:29;;;;;;;8.75;4.20;;;;;;;34.21;38.06;100093.20;1801112;79;21287;-81
2023/07/05 06:31:34;;;;;;;11.22;4.00;;;;;;;34.36;37.51;100095.22;1802491;79;21299;-81
2023/07/05 06:34:39;;;;;;;10.35;4.00;;;;;;;34.64;37.80;100092.18;1802354;79;21316;-80
2023/07/05 06:37:45;;;;;;;9.48;4.22;;;;;;;34.78;37.17;100088.50;1802285;79;21307;-80
2023/07/05 06:40:54;;;;;;;10.20;4.12;;;;;;;35.26;36.23;100085.73;1802285;79;21319;-80
2023/07/05 06:44:00;;;;;;;10.20;3.87;;;;;;;35.37;36.04;100088.16;1771483;80;21296;-80
2023/07/05 06:47:06;;;;;;;5.35;3.83;;;;;;;35.12;37.05;100082.34;1769676;81;21342;-80
2023/07/05 06:50:13;;;;;;;8.63;4.47;;;;;;;35.24;36.20;100089.53;1770755;81;21327;-80
2023/07/05 06:53:18;;;;;;;8.65;4.08;;;;;;;35.20;35.91;100082.05;1770822;81;21304;-80
2023/07/05 06:56:26;;;;;;;7.37;3.72;;;;;;;35.07;36.26;100076.88;1769430;81;21302;-80
2023/07/05 06:59:31;;;;;;;10.43;4.20;;;;;;;35.24;35.88;100079.58;1762740;80;21292;-80
2023/07/05 07:02:37;;;;;;;12.78;4.17;;;;;;;35.41;34.60;100083.44;1759099;81;21300;-80
2023/07/05 07:05:44;;;;;;;8.98;4.28;;;;;;;35.44;34.39;100081.33;1790718;79;21872;-80
2023/07/05 07:08:50;;;;;;;8.25;3.65;;;;;;;35.57;35.25;100085.33;1807093;79;21299;-80
2023/07/05 07:11:57;;;;;;;12.15;4.28;;;;;;;35.61;34.65;100082.59;1807273;79;21280;-80
2023/07/05 07:15:03;;;;;;;7.78;3.62;;;;;;;35.55;34.48;100085.42;1802431;79;21284;-80
2023/07/05 07:18:09;;;;;;;8.95;3.47;;;;;;;35.65;34.36;100087.83;1766687;81;21366;-80
2023/07/05 07:21:16;;;;;;;9.28;4.05;;;;;;;35.67;34.20;100078.97;1765985;81;21307;-80
2023/07/05 07:24:21;;;;;;;8.98;3.92;;;;;;;35.42;34.68;100080.83;1765298;81;21990;-80
2023/07/05 07:27:27;;;;;;;9.73;4.00;;;;;;;35.73;33.28;100072.69;1758345;81;21352;-80
2023/07/05 07:30:33;;;;;;;9.10;3.90;;;;;;;36.06;32.25;100076.95;1757143;81;21368;-80
2023/07/05 07:33:40;;;;;;;8.93;3.98;;;;;;;35.98;32.66;100072.18;1758171;81;21332;-80
2023/07/05 07:36:47;;;;;;;6.62;3.90;;;;;;;35.95;32.79;100074.89;1757918;81;21882;-80
2023/07/05 07:39:53;;;;;;;6.08;3.83;;;;;;;36.12;32.26;100079.56;1756768;81;21784;-80
2023/07/05 07:42:59;;;;;;;5.72;2.83;;;;;;;36.35;31.52;100076.50;1756362;81;21308;-80
2023/07/05 07:45:59;;;;;;;13.05;4.75;;;;;;;36.54;29.57;100078.19;1769115;81;21956;-80
2023/07/05 07:49:07;;;;;;;7.15;3.33;;;;;;;36.73;29.65;100075.33;1768890;81;21326;-80
2023/07/05 07:52:14;;;;;;;8.75;3.77;;;;;;;36.70;30.26;100074.61;1768195;81;21302;-80
2023/07/05 07:55:20;;;;;;;7.75;3.25;;;;;;;36.53;29.87;100065.73;1769465;79;21324;-80
2023/07/05 07:58:25;;;;;;;6.25;3.50;;;;;;;36.55;29.34;100071.89;1769722;81;21294;-80
2023/07/05 08:01:37;;;;;;;6.72;3.20;;;;;;;36.74;30.12;100067.84;1770850;81;21319;-80
2023/07/05 08:04:48;;;;;;;8.55;3.35;;;;;;;36.85;30.02;100070.45;1769399;81;21295;-80
2023/07/05 08:07:55;;;;;;;6.95;3.35;;;;;;;36.76;29.39;100066.91;1770143;81;21204;-80
2023/07/05 08:11:02;;;;;;;11.95;3.22;;;;;;;36.62;29.21;100064.20;1769347;81;21326;-80
2023/07/05 08:14:09;;;;;;;7.33;3.10;;;;;;;36.67;29.22;100057.66;1777652;79;21292;-80
2023/07/05 08:17:15;;;;;;;11.55;3.30;;;;;;;36.63;28.76;100060.98;1802309;79;21205;-80
2023/07/05 08:20:22;;;;;;;7.22;3.12;;;;;;;36.80;29.28;100062.15;1802281;79;21287;-80
2023/07/05 08:23:28;;;;;;;8.15;3.02;;;;;;;36.71;30.09;100060.63;1802618;79;21200;-80
2023/07/05 08:26:33;;;;;;;9.03;3.30;;;;;;;36.82;29.48;100058.34;1802414;79;21300;-81
2023/07/05 08:29:38;;;;;;;10.28;3.60;;;;;;;36.93;29.45;100057.27;1804333;79;21309;-80
2023/07/05 08:32:44;;;;;;;4.28;3.08;;;;;;;36.88;29.88;100053.21;1805324;79;21351;-81
2023/07/05 08:35:50;;;;;;;10.68;3.50;;;;;;;36.80;29.72;100052.18;1807994;79;21279;-81
2023/07/05 08:38:59;;;;;;;7.83;3.37;;;;;;;36.62;29.45;100049.35;1806420;79;21324;-81
2023/07/05 08:42:26;;;;;;;12.28;3.10;;;;;;;36.59;29.89;100045.78;1808182;79;21287;-81
2023/07/05 08:45:38;;;;;;;6.97;3.27;;;;;;;36.81;29.66;100042.44;1807985;79;21355;-81
2023/07/05 08:48:44;;;;;;;6.58;3.08;;;;;;;36.89;30.87;100050.63;1806841;79;22579;-81
2023/07/05 08:51:51;;;;;;;7.37;3.33;;;;;;;36.98;29.86;100039.09;1802936;79;21283;-81
2023/07/05 08:54:57;;;;;;;7.40;3.20;;;;;;;37.00;30.46;100037.55;1793020;79;21318;-81
2023/07/05 08:58:04;;;;;;;10.50;3.65;;;;;;;36.96;29.43;100045.75;1807780;79;21922;-81
2023/07/05 09:01:13;;;;;;;5.28;3.30;;;;;;;37.15;28.88;100040.83;1784263;79;21311;-81
2023/07/05 09:04:27;;;;;;;9.05;3.02;;;;;;;36.95;28.94;100036.98;1806535;79;21308;-81
2023/07/05 09:07:55;;;;;;;10.55;3.00;;;;;;;36.56;29.93;100033.11;1808041;79;21334;-81
2023/07/05 09:11:18;;;;;;;14.03;3.80;;;;;;;36.70;28.81;100032.73;1806906;79;21315;-81
2023/07/05 09:14:59;;;;;;;7.42;3.17;;;;;;;36.77;29.36;100037.81;1808106;79;21204;-81
2023/07/05 09:18:28;;;;;;;9.00;3.50;;;;;;;36.96;29.17;100035.78;1807750;79;21870;-81
2023/07/05 09:21:47;;;;;;;6.47;3.30;;;;;;;36.97;29.87;100037.44;1808122;79;21300;-81
2023/07/05 09:24:52;;;;;;;7.87;3.33;;;;;;;37.08;29.16;100032.91;1808185;79;21315;-81
2023/07/05 09:28:02;;;;;;;10.38;3.75;;;;;;;37.15;29.26;100039.41;1784579;79;21307;-81
2023/07/05 09:31:07;;;;;;;6.55;3.35;;;;;;;37.15;29.18;100034.52;1807952;79;21346;-81
2023/07/05 09:34:45;;;;;;;12.43;4.12;;;;;;;37.12;28.78;100033.81;1807929;79;21330;-80
2023/07/05 09:38:07;;;;;;;8.45;3.83;;;;;;;37.04;29.05;100030.54;1807981;79;21853;-81
2023/07/05 09:41:30;;;;;;;13.48;4.03;;;;;;;37.38;28.54;100035.42;1788097;79;21328;-81
2023/07/05 09:44:36;;;;;;;9.00;3.80;;;;;;;37.14;28.85;100032.05;1807969;79;21303;-81
2023/07/05 09:47:42;;;;;;;7.03;3.30;;;;;;;37.09;28.75;100025.41;1807962;79;21882;-81
2023/07/05 09:50:54;;;;;;;9.03;3.37;;;;;;;37.32;29.09;100031.38;1808043;79;21960;-81
2023/07/05 09:54:07;;;;;;;9.63;3.92;;;;;;;37.50;28.41;100035.34;1808477;79;21322;-81
2023/07/05 09:57:14;;;;;;;9.80;3.10;;;;;;;37.50;28.75;100033.92;1807999;79;21288;-80
2023/07/05 10:00:29;;;;;;;9.08;4.08;;;;;;;37.57;28.28;100028.43;1806689;79;21319;-80
2023/07/05 10:03:35;;;;;;;10.53;3.55;;;;;;;37.38;27.98;100029.72;1798117;79;21323;-81
2023/07/05 10:06:41;;;;;;;9.40;3.55;;;;;;;37.53;28.28;100026.07;1733529;81;21279;-80
2023/07/05 10:13:33;;;;;;;9.45;3.10;;;;;;;37.98;28.13;100020.60;1857135;76;22217;-81
2023/07/05 10:16:58;;;;;;;7.92;3.50;;;;;;;37.95;27.48;100023.58;1750145;82;21294;-81
2023/07/05 10:20:06;;;;;;;7.75;3.08;;;;;;;37.98;27.91;100023.45;1766428;81;21312;-81
2023/07/05 10:23:16;;;;;;;13.13;3.22;;;;;;;37.76;27.45;100024.27;1726962;82;21302;-80
2023/07/05 10:26:24;;;;;;;13.65;2.90;;;;;;;37.85;28.24;100016.39;1765316;81;21328;-80
2023/07/05 10:29:30;;;;;;;8.53;2.60;;;;;;;37.88;27.48;100019.70;1685927;83;21329;-80
2023/07/05 10:32:37;;;;;;;20.17;3.70;;;;;;;37.80;27.04;100019.49;1735469;82;21356;-80
2023/07/05 10:35:46;;;;;;;4.65;2.92;;;;;;;38.07;26.90;100011.25;1755546;81;21304;-80
2023/07/05 10:38:56;;;;;;;11.20;3.00;;;;;;;38.07;27.15;100008.41;1745772;82;21298;-80
2023/07/05 10:42:04;;;;;;;7.80;3.25;;;;;;;38.10;27.49;100020.49;1750934;82;21325;-81
2023/07/05 10:45:08;;;;;;;17.77;3.30;;;;;;;38.01;26.91;100019.24;1748930;82;22632;-81
2023/07/05 10:48:18;;;;;;;6.50;3.00;;;;;;;37.90;27.24;100016.72;1719238;83;21370;-81
2023/07/05 10:51:30;;;;;;;11.75;2.75;;;;;;;38.10;27.48;100010.50;1736423;82;21343;-81
2023/07/05 10:55:07;;;;;;;9.15;3.62;;;;;;;38.67;26.33;100013.94;1720644;83;21301;-81
2023/07/05 10:58:24;;;;;;;7.87;2.87;;;;;;;38.40;26.45;100011.48;1735516;82;21898;-81
2023/07/05 11:01:42;;;;;;;5.58;3.12;;;;;;;38.45;26.15;100011.20;1712014;82;21309;-81
2023/07/05 11:04:50;;;;;;;11.88;2.95;;;;;;;38.71;26.42;100014.25;1700268;84;21319;-81
2023/07/05 11:07:58;;;;;;;13.20;2.70;;;;;;;38.75;26.25;100012.91;1701118;84;21315;-81
2023/07/05 11:11:07;;;;;;;8.03;3.15;;;;;;;38.56;26.68;100001.66;1700777;84;21885;-81
2023/07/05 11:14:09;;;;;;;10.70;3.37;;;;;;;38.39;26.62;100009.81;1703779;83;21333;-81
2023/07/05 11:17:27;;;;;;;7.62;2.85;;;;;;;38.20;26.52;100007.68;1727354;83;21286;-81
2023/07/05 11:20:49;;;;;;;4.47;2.90;;;;;;;37.97;27.62;100004.08;1726107;83;21889;-81
2023/07/05 11:23:59;;;;;;;7.75;2.75;;;;;;;37.97;27.97;100011.22;1726036;83;21318;-81
2023/07/05 11:27:06;;;;;;;11.43;3.80;;;;;;;37.96;27.88;99995.86;1726995;83;21981;-81
2023/07/05 11:30:14;;;;;;;16.65;3.27;;;;;;;38.10;27.89;100000.51;1727315;83;21319;-81
2023/07/05 11:33:22;;;;;;;6.53;3.35;;;;;;;38.10;27.28;99992.77;1704907;83;21361;-81
2023/07/05 11:36:32;;;;;;;7.95;3.10;;;;;;;38.38;27.24;99990.42;1725597;83;21892;-80
2023/07/05 11:39:48;;;;;;;12.25;3.10;;;;;;;38.57;27.22;99998.20;1727087;83;21307;-80
2023/07/05 11:42:40;;;;;;;17.35;3.75;;;;;;;38.31;26.68;99990.26;1726939;82;21398;-81
2023/07/05 11:45:54;;;;;;;8.93;3.17;;;;;;;38.09;26.61;99983.98;1727011;83;21302;-81
2023/07/05 11:49:02;;;;;;;12.10;3.52;;;;;;;38.13;26.79;99988.96;1725713;83;21341;-80
2023/07/05 11:52:33;;;;;;;8.95;2.85;;;;;;;38.05;26.71;99986.52;1726884;83;21283;-80
2023/07/05 11:55:42;;;;;;;10.78;3.22;;;;;;;37.97;27.09;99986.09;1727014;83;21325;-80
2023/07/05 11:58:51;;;;;;;4.42;3.02;;;;;;;37.87;26.64;99979.52;1726264;83;21346;-80
2023/07/05 12:01:58;;;;;;;13.83;3.60;;;;;;;37.85;27.23;99978.47;1726807;83;21707;-80
2023/07/05 12:05:06;;;;;;;14.00;3.40;;;;;;;38.07;27.72;99976.39;1727151;83;21318;-80
2023/07/05 12:08:30;;;;;;;9.88;3.08;;;;;;;38.05;27.52;99983.05;1725766;83;21954;-80
2023/07/05 12:11:43;;;;;;;7.47;2.92;;;;;;;38.02;27.56;99982.39;1727069;83;21309;-80
2023/07/05 12:14:51;;;;;;;9.23;2.98;;;;;;;37.88;28.84;99985.45;1712147;82;21886;-80
2023/07/05 12:17:57;;;;;;;7.03;2.92;;;;;;;37.32;28.36;99967.81;1723615;82;21306;-80
2023/07/05 12:21:02;;;;;;;5.85;3.35;;;;;;;37.73;28.88;99975.05;1689065;85;21317;-80
2023/07/05 12:24:11;;;;;;;7.17;3.00;;;;;;;37.50;28.34;99976.30;1699050;84;21324;-80
2023/07/05 12:27:27;;;;;;;18.20;3.30;;;;;;;37.66;29.17;99974.88;1670492;85;21327;-80
2023/07/05 12:30:34;;;;;;;8.20;2.90;;;;;;;38.02;28.11;99972.39;1699698;84;22638;-80
2023/07/05 12:33:42;;;;;;;11.83;2.92;;;;;;;38.20;28.65;99969.95;1715123;83;21937;-80
2023/07/05 12:36:49;;;;;;;17.55;3.12;;;;;;;37.84;28.15;99969.08;1718058;83;21234;-80
2023/07/05 12:39:55;;;;;;;7.17;3.35;;;;;;;38.08;27.62;99967.23;1717738;83;21330;-80
2023/07/05 12:43:09;;;;;;;17.52;2.98;;;;;;;38.08;27.82;99966.62;1717681;83;21334;-80
2023/07/05 12:46:31;;;;;;;9.20;3.40;;;;;;;38.14;26.93;99960.03;1717860;83;21354;-80
2023/07/05 12:49:39;;;;;;;5.70;3.05;;;;;;;38.40;27.80;99964.36;1717791;83;22574;-80
2023/07/05 12:52:47;;;;;;;8.75;3.35;;;;;;;38.54;27.17;99956.94;1717863;83;21342;-80
2023/07/05 12:56:07;;;;;;;8.15;3.12;;;;;;;38.46;26.98;99961.43;1716421;83;21349;-80
2023/07/05 12:59:21;;;;;;;13.05;3.40;;;;;;;38.33;27.41;99960.11;1717487;83;21216;-80
2023/07/05 13:02:36;;;;;;;17.82;3.58;;;;;;;38.34;28.30;99965.22;1715484;83;21374;-80
2023/07/05 13:05:43;;;;;;;11.90;3.50;;;;;;;38.19;28.61;99955.45;1716334;83;21293;-80
2023/07/05 13:08:56;;;;;;;9.70;3.12;;;;;;;38.21;27.81;99957.36;1680159;83;21306;-80
2023/07/05 13:12:12;;;;;;;13.78;3.33;;;;;;;38.10;27.76;99949.11;1717808;83;21313;-80
2023/07/05 13:15:18;;;;;;;9.53;3.40;;;;;;;37.90;27.38;99945.97;1709555;83;21350;-80
2023/07/05 13:18:39;;;;;;;10.08;3.17;;;;;;;38.02;27.35;99940.17;1771379;81;21334;-80
2023/07/05 13:21:49;;;;;;;13.15;3.40;;;;;;;38.01;27.05;99937.06;1770931;81;21327;-80
2023/07/05 13:24:57;;;;;;;11.15;3.20;;;;;;;38.27;26.77;99937.91;1770078;81;21320;-80
2023/07/05 13:28:03;;;;;;;13.18;3.17;;;;;;;38.15;27.29;99934.55;1770857;81;21291;-80
2023/07/05 13:31:09;;;;;;;8.65;2.98;;;;;;;38.29;27.81;99935.49;1771246;81;21956;-80
2023/07/05 13:34:15;;;;;;;9.53;3.62;;;;;;;38.22;28.13;99934.73;1770532;81;21905;-80
2023/07/05 13:37:23;;;;;;;10.43;3.33;;;;;;;38.40;27.81;99938.66;1770873;81;21281;-80
2023/07/05 13:40:35;;;;;;;12.20;3.50;;;;;;;38.60;27.31;99933.19;1762762;81;21287;-80
2023/07/05 13:43:41;;;;;;;7.67;3.50;;;;;;;38.52;28.25;99928.50;1769457;81;21637;-80
2023/07/05 13:46:49;;;;;;;11.10;3.27;;;;;;;38.69;27.21;99930.94;1770933;81;21308;-80
2023/07/05 13:49:54;;;;;;;16.00;3.85;;;;;;;38.46;27.80;99926.55;1770729;81;21284;-80
2023/07/05 13:53:01;;;;;;;11.30;3.17;;;;;;;38.46;27.22;99920.01;1771352;81;21295;-80
2023/07/05 13:56:06;;;;;;;15.20;4.03;;;;;;;38.58;27.86;99909.86;1769464;81;21328;-80
2023/07/05 13:59:12;;;;;;;14.45;3.67;;;;;;;35.84;31.50;99907.45;1771734;81;21244;-80
2023/07/05 14:02:32;;;;;;;6.25;3.12;;;;;;;36.87;30.22;99906.23;1770549;81;21327;-80
2023/07/05 14:05:39;;;;;;;6.67;3.50;;;;;;;37.38;29.33;99897.94;1739038;82;21873;-80
2023/07/05 14:08:45;;;;;;;13.30;3.60;;;;;;;37.48;28.72;99900.84;1740752;82;21280;-80
2023/07/05 14:11:52;;;;;;;7.22;3.17;;;;;;;37.88;28.40;99896.41;1739209;82;21732;-80
2023/07/05 14:14:57;;;;;;;17.92;3.30;;;;;;;37.71;28.69;99903.88;1743718;81;21392;-81
2023/07/05 14:18:03;;;;;;;10.28;2.75;;;;;;;37.77;29.25;99890.38;1737496;82;22225;-80
2023/07/05 14:21:09;;;;;;;6.08;3.30;;;;;;;37.82;27.95;99887.23;1732124;82;21892;-80
2023/07/05 14:24:19;;;;;;;9.00;3.35;;;;;;;38.24;27.85;99880.92;1745965;82;21282;-80
2023/07/05 14:27:30;;;;;;;13.15;3.85;;;;;;;37.77;29.42;99883.84;1708235;84;21868;-81
2023/07/05 14:30:35;;;;;;;7.12;3.42;;;;;;;37.90;29.32;99880.33;1714618;82;21833;-80
2023/07/05 14:33:41;;;;;;;10.78;3.00;;;;;;;37.65;29.41;99873.38;1745660;82;21842;-80
2023/07/05 14:36:48;;;;;;;6.37;3.00;;;;;;;37.70;29.75;99882.26;1737839;81;21293;-80
2023/07/05 14:39:53;;;;;;;10.98;3.42;;;;;;;37.33;30.23;99875.36;1733291;82;21865;-81
2023/07/05 14:43:00;;;;;;;13.53;3.40;;;;;;;37.66;29.84;99872.77;1738610;81;21363;-81